sensor_id;sensor_type;location;lat;lon;timestamp;P1;durP1;ratioP1;P2;durP2;ratioP2
23058;SDS011;30585;51.502;7.218;2023-11-22T00:00:29;2.67;;;1.60;;
23058;SDS011;30585;51.502;7.218;2023-11-22T00:02:57;1.90;;;1.60;;
23058;SDS011;30585;51.502;7.218;2023-11-22T00:05:25;4.53;;;1.93;;
23058;SDS011;30585;51.502;7.218;2023-11-22T00:07:53;2.57;;;2.13;;
23058;SDS011;30585;51.502;7.218;2023-11-22T00:10:21;3.37;;;1.97;;
23058;SDS011;30585;51.502;7.218;2023-11-22T00:12:49;2.43;;;1.53;;
23058;SDS011;30585;51.502;7.218;2023-11-22T00:15:17;2.67;;;1.47;;
23058;SDS011;30585;51.502;7.218;2023-11-22T00:17:46;2.93;;;2.07;;
23058;SDS011;30585;51.502;7.218;2023-11-22T00:20:15;1.50;;;1.40;;
23058;SDS011;30585;51.502;7.218;2023-11-22T00:22:43;2.87;;;2.27;;
23058;SDS011;30585;51.502;7.218;2023-11-22T00:25:12;2.90;;;1.70;;
23058;SDS011;30585;51.502;7.218;2023-11-22T00:27:40;4.07;;;2.13;;
23058;SDS011;30585;51.502;7.218;2023-11-22T00:30:09;3.47;;;2.30;;
23058;SDS011;30585;51.502;7.218;2023-11-22T00:32:37;3.60;;;2.00;;
23058;SDS011;30585;51.502;7.218;2023-11-22T00:35:08;2.70;;;1.83;;
23058;SDS011;30585;51.502;7.218;2023-11-22T00:37:36;9.90;;;2.83;;
23058;SDS011;30585;51.502;7.218;2023-11-22T00:40:04;3.23;;;2.03;;
23058;SDS011;30585;51.502;7.218;2023-11-22T00:42:37;3.67;;;2.13;;
23058;SDS011;30585;51.502;7.218;2023-11-22T00:45:06;7.77;;;2.33;;
23058;SDS011;30585;51.502;7.218;2023-11-22T00:47:36;2.43;;;1.67;;
23058;SDS011;30585;51.502;7.218;2023-11-22T00:50:04;2.20;;;1.67;;
23058;SDS011;30585;51.502;7.218;2023-11-22T00:52:34;3.00;;;2.20;;
23058;SDS011;30585;51.502;7.218;2023-11-22T00:55:02;2.97;;;2.13;;
23058;SDS011;30585;51.502;7.218;2023-11-22T00:57:30;4.40;;;2.87;;
23058;SDS011;30585;51.502;7.218;2023-11-22T00:59:58;3.53;;;1.87;;
23058;SDS011;30585;51.502;7.218;2023-11-22T01:02:26;3.77;;;2.20;;
23058;SDS011;30585;51.502;7.218;2023-11-22T01:04:54;3.37;;;2.20;;
23058;SDS011;30585;51.502;7.218;2023-11-22T01:07:21;4.73;;;2.20;;
23058;SDS011;30585;51.502;7.218;2023-11-22T01:09:50;2.30;;;1.87;;
23058;SDS011;30585;51.502;7.218;2023-11-22T01:12:19;6.33;;;3.03;;
23058;SDS011;30585;51.502;7.218;2023-11-22T01:14:47;2.10;;;1.90;;
23058;SDS011;30585;51.502;7.218;2023-11-22T01:17:14;4.43;;;2.57;;
23058;SDS011;30585;51.502;7.218;2023-11-22T01:19:42;2.57;;;2.27;;
23058;SDS011;30585;51.502;7.218;2023-11-22T01:22:10;3.93;;;2.00;;
23058;SDS011;30585;51.502;7.218;2023-11-22T01:24:38;2.90;;;2.30;;
23058;SDS011;30585;51.502;7.218;2023-11-22T01:27:07;4.67;;;3.10;;
23058;SDS011;30585;51.502;7.218;2023-11-22T01:29:35;4.73;;;2.67;;
23058;SDS011;30585;51.502;7.218;2023-11-22T01:32:02;3.93;;;2.50;;
23058;SDS011;30585;51.502;7.218;2023-11-22T01:34:30;3.67;;;2.43;;
23058;SDS011;30585;51.502;7.218;2023-11-22T01:36:58;4.97;;;2.90;;
23058;SDS011;30585;51.502;7.218;2023-11-22T01:39:25;3.20;;;1.87;;
23058;SDS011;30585;51.502;7.218;2023-11-22T01:41:53;3.67;;;2.67;;
23058;SDS011;30585;51.502;7.218;2023-11-22T01:44:23;6.50;;;2.57;;
23058;SDS011;30585;51.502;7.218;2023-11-22T01:46:53;3.90;;;2.13;;
23058;SDS011;30585;51.502;7.218;2023-11-22T01:49:22;4.30;;;2.27;;
23058;SDS011;30585;51.502;7.218;2023-11-22T01:51:50;3.37;;;2.03;;
23058;SDS011;30585;51.502;7.218;2023-11-22T01:54:18;3.63;;;2.70;;
23058;SDS011;30585;51.502;7.218;2023-11-22T01:56:47;3.47;;;2.60;;
23058;SDS011;30585;51.502;7.218;2023-11-22T01:59:15;3.30;;;2.27;;
23058;SDS011;30585;51.502;7.218;2023-11-22T02:01:46;2.47;;;1.47;;
23058;SDS011;30585;51.502;7.218;2023-11-22T02:04:16;4.40;;;2.47;;
23058;SDS011;30585;51.502;7.218;2023-11-22T02:06:44;3.13;;;1.97;;
23058;SDS011;30585;51.502;7.218;2023-11-22T02:09:11;2.80;;;2.17;;
23058;SDS011;30585;51.502;7.218;2023-11-22T02:11:42;3.97;;;2.63;;
23058;SDS011;30585;51.502;7.218;2023-11-22T02:14:11;6.10;;;2.77;;
23058;SDS011;30585;51.502;7.218;2023-11-22T02:16:39;3.13;;;2.47;;
23058;SDS011;30585;51.502;7.218;2023-11-22T02:19:11;3.27;;;2.20;;
23058;SDS011;30585;51.502;7.218;2023-11-22T02:21:42;4.40;;;3.17;;
23058;SDS011;30585;51.502;7.218;2023-11-22T02:24:11;3.70;;;2.60;;
23058;SDS011;30585;51.502;7.218;2023-11-22T02:26:42;3.67;;;2.83;;
23058;SDS011;30585;51.502;7.218;2023-11-22T02:29:12;4.20;;;2.17;;
23058;SDS011;30585;51.502;7.218;2023-11-22T02:31:41;4.67;;;3.23;;
23058;SDS011;30585;51.502;7.218;2023-11-22T02:34:09;3.57;;;2.77;;
23058;SDS011;30585;51.502;7.218;2023-11-22T02:36:37;3.47;;;1.80;;
23058;SDS011;30585;51.502;7.218;2023-11-22T02:39:05;2.40;;;2.00;;
23058;SDS011;30585;51.502;7.218;2023-11-22T02:41:34;3.17;;;2.30;;
23058;SDS011;30585;51.502;7.218;2023-11-22T02:44:02;3.30;;;2.47;;
23058;SDS011;30585;51.502;7.218;2023-11-22T02:46:33;2.10;;;1.77;;
23058;SDS011;30585;51.502;7.218;2023-11-22T02:49:01;5.47;;;2.47;;
23058;SDS011;30585;51.502;7.218;2023-11-22T02:51:28;2.80;;;2.27;;
23058;SDS011;30585;51.502;7.218;2023-11-22T02:53:57;3.87;;;2.30;;
23058;SDS011;30585;51.502;7.218;2023-11-22T02:56:24;5.23;;;3.20;;
23058;SDS011;30585;51.502;7.218;2023-11-22T02:58:54;3.07;;;2.03;;
23058;SDS011;30585;51.502;7.218;2023-11-22T03:01:22;3.07;;;1.70;;
23058;SDS011;30585;51.502;7.218;2023-11-22T03:03:49;5.67;;;2.37;;
23058;SDS011;30585;51.502;7.218;2023-11-22T03:06:17;3.70;;;2.93;;
23058;SDS011;30585;51.502;7.218;2023-11-22T03:08:45;6.23;;;2.33;;
23058;SDS011;30585;51.502;7.218;2023-11-22T03:11:14;2.67;;;2.00;;
23058;SDS011;30585;51.502;7.218;2023-11-22T03:13:42;1.60;;;1.20;;
23058;SDS011;30585;51.502;7.218;2023-11-22T03:16:11;4.17;;;2.10;;
23058;SDS011;30585;51.502;7.218;2023-11-22T03:18:39;7.07;;;2.33;;
23058;SDS011;30585;51.502;7.218;2023-11-22T03:21:07;9.57;;;2.27;;
23058;SDS011;30585;51.502;7.218;2023-11-22T03:23:36;2.47;;;2.00;;
23058;SDS011;30585;51.502;7.218;2023-11-22T03:26:04;2.90;;;2.10;;
23058;SDS011;30585;51.502;7.218;2023-11-22T03:28:32;4.53;;;2.23;;
23058;SDS011;30585;51.502;7.218;2023-11-22T03:31:00;3.43;;;1.83;;
23058;SDS011;30585;51.502;7.218;2023-11-22T03:33:30;3.57;;;1.83;;
23058;SDS011;30585;51.502;7.218;2023-11-22T03:35:58;3.73;;;2.33;;
23058;SDS011;30585;51.502;7.218;2023-11-22T03:38:26;2.33;;;1.60;;
23058;SDS011;30585;51.502;7.218;2023-11-22T03:40:53;3.27;;;1.87;;
23058;SDS011;30585;51.502;7.218;2023-11-22T03:43:21;2.50;;;2.07;;
23058;SDS011;30585;51.502;7.218;2023-11-22T03:45:49;2.30;;;1.33;;
23058;SDS011;30585;51.502;7.218;2023-11-22T03:48:17;2.30;;;2.10;;
23058;SDS011;30585;51.502;7.218;2023-11-22T03:50:46;2.17;;;1.80;;
23058;SDS011;30585;51.502;7.218;2023-11-22T03:53:13;3.87;;;2.37;;
23058;SDS011;30585;51.502;7.218;2023-11-22T03:55:41;5.57;;;1.70;;
23058;SDS011;30585;51.502;7.218;2023-11-22T03:58:09;2.57;;;2.10;;
23058;SDS011;30585;51.502;7.218;2023-11-22T04:00:37;2.77;;;2.40;;
23058;SDS011;30585;51.502;7.218;2023-11-22T04:03:05;2.97;;;2.10;;
23058;SDS011;30585;51.502;7.218;2023-11-22T04:05:33;2.77;;;2.07;;
23058;SDS011;30585;51.502;7.218;2023-11-22T04:08:02;4.43;;;2.00;;
23058;SDS011;30585;51.502;7.218;2023-11-22T04:10:30;3.63;;;1.60;;
23058;SDS011;30585;51.502;7.218;2023-11-22T04:12:58;2.20;;;1.47;;
23058;SDS011;30585;51.502;7.218;2023-11-22T04:15:26;2.63;;;1.50;;
23058;SDS011;30585;51.502;7.218;2023-11-22T04:17:54;4.47;;;2.37;;
23058;SDS011;30585;51.502;7.218;2023-11-22T04:20:22;2.97;;;1.97;;
23058;SDS011;30585;51.502;7.218;2023-11-22T04:22:50;2.63;;;1.43;;
23058;SDS011;30585;51.502;7.218;2023-11-22T04:25:19;5.43;;;2.53;;
23058;SDS011;30585;51.502;7.218;2023-11-22T04:27:47;3.57;;;1.50;;
23058;SDS011;30585;51.502;7.218;2023-11-22T04:30:14;7.80;;;1.97;;
23058;SDS011;30585;51.502;7.218;2023-11-22T04:32:43;2.13;;;1.57;;
23058;SDS011;30585;51.502;7.218;2023-11-22T04:35:11;2.03;;;1.57;;
23058;SDS011;30585;51.502;7.218;2023-11-22T04:37:39;1.63;;;1.40;;
23058;SDS011;30585;51.502;7.218;2023-11-22T04:40:07;1.30;;;1.17;;
23058;SDS011;30585;51.502;7.218;2023-11-22T04:42:39;3.73;;;1.83;;
23058;SDS011;30585;51.502;7.218;2023-11-22T04:45:07;2.30;;;1.90;;
23058;SDS011;30585;51.502;7.218;2023-11-22T04:47:36;3.13;;;1.43;;
23058;SDS011;30585;51.502;7.218;2023-11-22T04:50:04;4.33;;;2.10;;
23058;SDS011;30585;51.502;7.218;2023-11-22T04:52:32;3.37;;;2.00;;
23058;SDS011;30585;51.502;7.218;2023-11-22T04:55:00;4.93;;;1.60;;
23058;SDS011;30585;51.502;7.218;2023-11-22T04:57:28;3.37;;;1.43;;
23058;SDS011;30585;51.502;7.218;2023-11-22T04:59:57;1.83;;;1.63;;
23058;SDS011;30585;51.502;7.218;2023-11-22T05:02:26;4.13;;;2.17;;
23058;SDS011;30585;51.502;7.218;2023-11-22T05:04:54;2.30;;;1.57;;
23058;SDS011;30585;51.502;7.218;2023-11-22T05:07:23;2.83;;;1.33;;
23058;SDS011;30585;51.502;7.218;2023-11-22T05:09:51;2.07;;;1.53;;
23058;SDS011;30585;51.502;7.218;2023-11-22T05:12:18;3.03;;;2.13;;
23058;SDS011;30585;51.502;7.218;2023-11-22T05:14:46;4.13;;;2.00;;
23058;SDS011;30585;51.502;7.218;2023-11-22T05:17:15;1.83;;;1.53;;
23058;SDS011;30585;51.502;7.218;2023-11-22T05:19:43;2.83;;;1.80;;
23058;SDS011;30585;51.502;7.218;2023-11-22T05:22:11;3.17;;;1.57;;
23058;SDS011;30585;51.502;7.218;2023-11-22T05:24:38;2.37;;;1.07;;
23058;SDS011;30585;51.502;7.218;2023-11-22T05:27:07;3.47;;;1.17;;
23058;SDS011;30585;51.502;7.218;2023-11-22T05:29:35;1.77;;;1.20;;
23058;SDS011;30585;51.502;7.218;2023-11-22T05:32:16;1.50;;;1.37;;
23058;SDS011;30585;51.502;7.218;2023-11-22T05:34:44;3.60;;;2.10;;
23058;SDS011;30585;51.502;7.218;2023-11-22T05:37:12;1.87;;;1.67;;
23058;SDS011;30585;51.502;7.218;2023-11-22T05:39:40;5.20;;;2.77;;
23058;SDS011;30585;51.502;7.218;2023-11-22T05:42:08;2.00;;;1.67;;
23058;SDS011;30585;51.502;7.218;2023-11-22T05:44:35;3.60;;;2.07;;
23058;SDS011;30585;51.502;7.218;2023-11-22T05:47:04;3.13;;;1.63;;
23058;SDS011;30585;51.502;7.218;2023-11-22T05:49:35;5.87;;;2.37;;
23058;SDS011;30585;51.502;7.218;2023-11-22T05:52:03;3.13;;;1.97;;
23058;SDS011;30585;51.502;7.218;2023-11-22T05:54:31;3.73;;;1.30;;
23058;SDS011;30585;51.502;7.218;2023-11-22T05:56:59;3.10;;;1.10;;
23058;SDS011;30585;51.502;7.218;2023-11-22T05:59:27;2.57;;;1.37;;
23058;SDS011;30585;51.502;7.218;2023-11-22T06:01:55;2.47;;;1.77;;
23058;SDS011;30585;51.502;7.218;2023-11-22T06:04:22;3.17;;;1.57;;
23058;SDS011;30585;51.502;7.218;2023-11-22T06:06:52;2.47;;;1.70;;
23058;SDS011;30585;51.502;7.218;2023-11-22T06:09:19;1.93;;;1.53;;
23058;SDS011;30585;51.502;7.218;2023-11-22T06:11:49;3.23;;;1.90;;
23058;SDS011;30585;51.502;7.218;2023-11-22T06:14:17;1.73;;;1.60;;
23058;SDS011;30585;51.502;7.218;2023-11-22T06:16:45;1.50;;;1.33;;
23058;SDS011;30585;51.502;7.218;2023-11-22T06:19:13;1.20;;;1.10;;
23058;SDS011;30585;51.502;7.218;2023-11-22T06:21:42;1.90;;;1.30;;
23058;SDS011;30585;51.502;7.218;2023-11-22T06:24:11;8.23;;;1.97;;
23058;SDS011;30585;51.502;7.218;2023-11-22T06:26:42;3.57;;;1.90;;
23058;SDS011;30585;51.502;7.218;2023-11-22T06:29:12;1.40;;;1.30;;
23058;SDS011;30585;51.502;7.218;2023-11-22T06:31:41;2.87;;;1.60;;
23058;SDS011;30585;51.502;7.218;2023-11-22T06:34:09;3.03;;;1.33;;
23058;SDS011;30585;51.502;7.218;2023-11-22T06:36:37;1.83;;;1.60;;
23058;SDS011;30585;51.502;7.218;2023-11-22T06:39:05;2.10;;;1.90;;
23058;SDS011;30585;51.502;7.218;2023-11-22T06:41:36;1.10;;;1.00;;
23058;SDS011;30585;51.502;7.218;2023-11-22T06:44:04;1.50;;;1.00;;
23058;SDS011;30585;51.502;7.218;2023-11-22T06:46:32;1.90;;;1.70;;
23058;SDS011;30585;51.502;7.218;2023-11-22T06:49:00;2.67;;;1.60;;
23058;SDS011;30585;51.502;7.218;2023-11-22T06:51:28;1.13;;;1.03;;
23058;SDS011;30585;51.502;7.218;2023-11-22T06:53:56;1.23;;;0.90;;
23058;SDS011;30585;51.502;7.218;2023-11-22T06:56:24;11.73;;;1.73;;
23058;SDS011;30585;51.502;7.218;2023-11-22T06:58:53;1.23;;;0.93;;
23058;SDS011;30585;51.502;7.218;2023-11-22T07:01:22;1.40;;;1.30;;
23058;SDS011;30585;51.502;7.218;2023-11-22T07:03:52;2.00;;;1.27;;
23058;SDS011;30585;51.502;7.218;2023-11-22T07:06:20;2.43;;;1.70;;
23058;SDS011;30585;51.502;7.218;2023-11-22T07:08:48;2.00;;;1.10;;
23058;SDS011;30585;51.502;7.218;2023-11-22T07:11:23;4.73;;;1.23;;
23058;SDS011;30585;51.502;7.218;2023-11-22T07:13:51;1.20;;;1.03;;
23058;SDS011;30585;51.502;7.218;2023-11-22T07:16:20;2.00;;;1.07;;
23058;SDS011;30585;51.502;7.218;2023-11-22T07:18:48;4.03;;;1.77;;
23058;SDS011;30585;51.502;7.218;2023-11-22T07:21:16;2.77;;;1.33;;
23058;SDS011;30585;51.502;7.218;2023-11-22T07:23:44;1.73;;;1.13;;
23058;SDS011;30585;51.502;7.218;2023-11-22T07:26:15;2.73;;;1.47;;
23058;SDS011;30585;51.502;7.218;2023-11-22T07:28:42;3.73;;;1.63;;
23058;SDS011;30585;51.502;7.218;2023-11-22T07:31:10;1.33;;;0.97;;
23058;SDS011;30585;51.502;7.218;2023-11-22T07:33:40;3.13;;;0.93;;
23058;SDS011;30585;51.502;7.218;2023-11-22T07:36:08;5.87;;;1.60;;
23058;SDS011;30585;51.502;7.218;2023-11-22T07:38:36;0.83;;;0.83;;
23058;SDS011;30585;51.502;7.218;2023-11-22T07:41:04;2.03;;;1.63;;
23058;SDS011;30585;51.502;7.218;2023-11-22T07:43:33;5.20;;;2.30;;
23058;SDS011;30585;51.502;7.218;2023-11-22T07:46:04;2.70;;;1.50;;
23058;SDS011;30585;51.502;7.218;2023-11-22T07:48:35;2.10;;;1.47;;
23058;SDS011;30585;51.502;7.218;2023-11-22T07:51:05;1.57;;;1.47;;
23058;SDS011;30585;51.502;7.218;2023-11-22T07:53:33;1.47;;;1.10;;
23058;SDS011;30585;51.502;7.218;2023-11-22T07:56:01;1.30;;;1.20;;
23058;SDS011;30585;51.502;7.218;2023-11-22T07:58:30;6.03;;;1.37;;
23058;SDS011;30585;51.502;7.218;2023-11-22T08:00:58;1.60;;;1.40;;
23058;SDS011;30585;51.502;7.218;2023-11-22T08:03:26;2.00;;;1.33;;
23058;SDS011;30585;51.502;7.218;2023-11-22T08:05:54;0.97;;;0.93;;
23058;SDS011;30585;51.502;7.218;2023-11-22T08:08:24;4.37;;;1.80;;
23058;SDS011;30585;51.502;7.218;2023-11-22T08:10:52;2.10;;;1.00;;
23058;SDS011;30585;51.502;7.218;2023-11-22T08:13:20;1.60;;;1.50;;
23058;SDS011;30585;51.502;7.218;2023-11-22T08:15:49;1.87;;;1.67;;
23058;SDS011;30585;51.502;7.218;2023-11-22T08:18:17;2.00;;;1.80;;
23058;SDS011;30585;51.502;7.218;2023-11-22T08:20:45;2.97;;;1.67;;
23058;SDS011;30585;51.502;7.218;2023-11-22T08:23:13;3.83;;;2.23;;
23058;SDS011;30585;51.502;7.218;2023-11-22T08:25:43;1.37;;;1.10;;
23058;SDS011;30585;51.502;7.218;2023-11-22T08:28:11;4.17;;;1.73;;
23058;SDS011;30585;51.502;7.218;2023-11-22T08:30:39;2.17;;;1.90;;
23058;SDS011;30585;51.502;7.218;2023-11-22T08:33:07;2.80;;;1.70;;
23058;SDS011;30585;51.502;7.218;2023-11-22T08:35:35;1.93;;;1.63;;
23058;SDS011;30585;51.502;7.218;2023-11-22T08:38:03;2.83;;;1.67;;
23058;SDS011;30585;51.502;7.218;2023-11-22T08:40:35;2.30;;;1.53;;
23058;SDS011;30585;51.502;7.218;2023-11-22T08:43:05;3.60;;;1.37;;
23058;SDS011;30585;51.502;7.218;2023-11-22T08:45:33;2.17;;;1.40;;
23058;SDS011;30585;51.502;7.218;2023-11-22T08:48:01;3.03;;;2.63;;
23058;SDS011;30585;51.502;7.218;2023-11-22T08:50:30;3.70;;;1.93;;
23058;SDS011;30585;51.502;7.218;2023-11-22T08:52:58;1.80;;;1.50;;
23058;SDS011;30585;51.502;7.218;2023-11-22T08:55:26;3.00;;;1.63;;
23058;SDS011;30585;51.502;7.218;2023-11-22T08:57:54;1.57;;;1.37;;
23058;SDS011;30585;51.502;7.218;2023-11-22T09:00:23;3.30;;;1.73;;
23058;SDS011;30585;51.502;7.218;2023-11-22T09:02:54;2.30;;;1.70;;
23058;SDS011;30585;51.502;7.218;2023-11-22T09:05:22;2.10;;;1.43;;
23058;SDS011;30585;51.502;7.218;2023-11-22T09:07:51;2.23;;;1.50;;
23058;SDS011;30585;51.502;7.218;2023-11-22T09:10:21;2.93;;;2.10;;
23058;SDS011;30585;51.502;7.218;2023-11-22T09:12:49;3.63;;;2.07;;
23058;SDS011;30585;51.502;7.218;2023-11-22T09:15:18;1.30;;;1.17;;
23058;SDS011;30585;51.502;7.218;2023-11-22T09:17:54;5.60;;;2.13;;
23058;SDS011;30585;51.502;7.218;2023-11-22T09:20:22;1.73;;;1.40;;
23058;SDS011;30585;51.502;7.218;2023-11-22T09:22:51;3.13;;;1.77;;
23058;SDS011;30585;51.502;7.218;2023-11-22T09:25:21;5.73;;;1.90;;
23058;SDS011;30585;51.502;7.218;2023-11-22T09:27:50;5.90;;;1.70;;
23058;SDS011;30585;51.502;7.218;2023-11-22T09:30:22;1.27;;;1.00;;
23058;SDS011;30585;51.502;7.218;2023-11-22T09:33:03;3.27;;;1.50;;
23058;SDS011;30585;51.502;7.218;2023-11-22T09:35:31;0.67;;;0.67;;
23058;SDS011;30585;51.502;7.218;2023-11-22T09:38:00;1.03;;;0.83;;
23058;SDS011;30585;51.502;7.218;2023-11-22T09:40:29;1.23;;;1.13;;
23058;SDS011;30585;51.502;7.218;2023-11-22T09:42:59;1.23;;;1.00;;
23058;SDS011;30585;51.502;7.218;2023-11-22T09:45:29;2.33;;;1.33;;
23058;SDS011;30585;51.502;7.218;2023-11-22T09:47:58;2.40;;;1.50;;
23058;SDS011;30585;51.502;7.218;2023-11-22T09:50:32;1.63;;;1.20;;
23058;SDS011;30585;51.502;7.218;2023-11-22T09:53:06;3.23;;;1.47;;
23058;SDS011;30585;51.502;7.218;2023-11-22T09:55:38;1.47;;;0.90;;
23058;SDS011;30585;51.502;7.218;2023-11-22T09:58:10;1.43;;;1.00;;
23058;SDS011;30585;51.502;7.218;2023-11-22T10:00:39;1.67;;;1.10;;
23058;SDS011;30585;51.502;7.218;2023-11-22T10:03:09;2.27;;;1.27;;
23058;SDS011;30585;51.502;7.218;2023-11-22T10:05:41;1.47;;;1.20;;
23058;SDS011;30585;51.502;7.218;2023-11-22T10:08:09;2.40;;;1.30;;
23058;SDS011;30585;51.502;7.218;2023-11-22T10:10:37;3.03;;;1.00;;
23058;SDS011;30585;51.502;7.218;2023-11-22T10:13:06;2.07;;;1.10;;
23058;SDS011;30585;51.502;7.218;2023-11-22T10:15:36;4.27;;;1.20;;
23058;SDS011;30585;51.502;7.218;2023-11-22T10:18:04;2.03;;;1.20;;
23058;SDS011;30585;51.502;7.218;2023-11-22T10:20:37;2.07;;;1.50;;
23058;SDS011;30585;51.502;7.218;2023-11-22T10:23:09;1.23;;;0.93;;
23058;SDS011;30585;51.502;7.218;2023-11-22T10:25:43;1.20;;;0.90;;
23058;SDS011;30585;51.502;7.218;2023-11-22T10:28:11;1.57;;;1.27;;
23058;SDS011;30585;51.502;7.218;2023-11-22T10:30:39;3.60;;;0.93;;
23058;SDS011;30585;51.502;7.218;2023-11-22T10:33:09;0.73;;;0.70;;
23058;SDS011;30585;51.502;7.218;2023-11-22T10:35:41;5.17;;;1.20;;
23058;SDS011;30585;51.502;7.218;2023-11-22T10:38:11;1.63;;;1.20;;
23058;SDS011;30585;51.502;7.218;2023-11-22T10:40:41;2.00;;;1.53;;
23058;SDS011;30585;51.502;7.218;2023-11-22T10:43:11;1.93;;;1.20;;
23058;SDS011;30585;51.502;7.218;2023-11-22T10:45:39;2.80;;;1.10;;
23058;SDS011;30585;51.502;7.218;2023-11-22T10:48:12;2.30;;;1.20;;
23058;SDS011;30585;51.502;7.218;2023-11-22T10:50:42;1.70;;;1.10;;
23058;SDS011;30585;51.502;7.218;2023-11-22T10:53:12;2.60;;;1.93;;
23058;SDS011;30585;51.502;7.218;2023-11-22T10:55:44;2.00;;;1.33;;
23058;SDS011;30585;51.502;7.218;2023-11-22T10:58:13;2.07;;;1.60;;
23058;SDS011;30585;51.502;7.218;2023-11-22T11:00:42;1.67;;;0.80;;
23058;SDS011;30585;51.502;7.218;2023-11-22T11:03:11;2.37;;;2.03;;
23058;SDS011;30585;51.502;7.218;2023-11-22T11:05:43;2.17;;;1.50;;
23058;SDS011;30585;51.502;7.218;2023-11-22T11:08:19;1.17;;;0.97;;
23058;SDS011;30585;51.502;7.218;2023-11-22T11:10:51;6.53;;;1.70;;
23058;SDS011;30585;51.502;7.218;2023-11-22T11:13:20;1.67;;;1.23;;
23058;SDS011;30585;51.502;7.218;2023-11-22T11:15:50;1.93;;;1.00;;
23058;SDS011;30585;51.502;7.218;2023-11-22T11:18:20;3.20;;;1.33;;
23058;SDS011;30585;51.502;7.218;2023-11-22T11:20:49;1.60;;;1.00;;
23058;SDS011;30585;51.502;7.218;2023-11-22T11:23:17;1.53;;;1.23;;
23058;SDS011;30585;51.502;7.218;2023-11-22T11:25:48;1.07;;;0.70;;
23058;SDS011;30585;51.502;7.218;2023-11-22T11:28:16;1.53;;;1.27;;
23058;SDS011;30585;51.502;7.218;2023-11-22T11:30:45;4.37;;;1.30;;
23058;SDS011;30585;51.502;7.218;2023-11-22T11:33:15;2.10;;;1.30;;
23058;SDS011;30585;51.502;7.218;2023-11-22T11:35:46;4.13;;;1.80;;
23058;SDS011;30585;51.502;7.218;2023-11-22T11:38:16;6.07;;;1.27;;
23058;SDS011;30585;51.502;7.218;2023-11-22T11:40:48;1.13;;;1.00;;
23058;SDS011;30585;51.502;7.218;2023-11-22T11:43:20;2.13;;;1.17;;
23058;SDS011;30585;51.502;7.218;2023-11-22T11:45:48;1.53;;;0.90;;
23058;SDS011;30585;51.502;7.218;2023-11-22T11:48:16;1.23;;;0.80;;
23058;SDS011;30585;51.502;7.218;2023-11-22T11:50:46;1.10;;;1.00;;
23058;SDS011;30585;51.502;7.218;2023-11-22T11:53:18;1.37;;;0.90;;
23058;SDS011;30585;51.502;7.218;2023-11-22T11:55:48;3.23;;;1.33;;
23058;SDS011;30585;51.502;7.218;2023-11-22T11:58:19;1.73;;;1.37;;
23058;SDS011;30585;51.502;7.218;2023-11-22T12:00:50;1.93;;;1.23;;
23058;SDS011;30585;51.502;7.218;2023-11-22T12:03:18;3.57;;;1.53;;
23058;SDS011;30585;51.502;7.218;2023-11-22T12:05:48;2.60;;;1.70;;
23058;SDS011;30585;51.502;7.218;2023-11-22T12:08:16;5.40;;;1.13;;
23058;SDS011;30585;51.502;7.218;2023-11-22T12:10:45;2.67;;;1.07;;
23058;SDS011;30585;51.502;7.218;2023-11-22T12:13:17;1.90;;;1.30;;
23058;SDS011;30585;51.502;7.218;2023-11-22T12:15:46;0.73;;;0.70;;
23058;SDS011;30585;51.502;7.218;2023-11-22T12:18:13;1.30;;;1.20;;
23058;SDS011;30585;51.502;7.218;2023-11-22T12:20:42;6.97;;;1.33;;
23058;SDS011;30585;51.502;7.218;2023-11-22T12:23:22;1.17;;;0.83;;
23058;SDS011;30585;51.502;7.218;2023-11-22T12:25:53;1.00;;;0.57;;
23058;SDS011;30585;51.502;7.218;2023-11-22T12:28:24;1.50;;;1.00;;
23058;SDS011;30585;51.502;7.218;2023-11-22T12:30:54;1.77;;;0.90;;
23058;SDS011;30585;51.502;7.218;2023-11-22T12:33:21;1.73;;;0.70;;
23058;SDS011;30585;51.502;7.218;2023-11-22T12:35:49;2.73;;;1.00;;
23058;SDS011;30585;51.502;7.218;2023-11-22T12:38:17;0.73;;;0.67;;
23058;SDS011;30585;51.502;7.218;2023-11-22T12:40:45;1.07;;;0.70;;
23058;SDS011;30585;51.502;7.218;2023-11-22T12:43:14;1.00;;;0.67;;
23058;SDS011;30585;51.502;7.218;2023-11-22T12:45:43;3.73;;;1.17;;
23058;SDS011;30585;51.502;7.218;2023-11-22T12:48:22;2.23;;;0.90;;
23058;SDS011;30585;51.502;7.218;2023-11-22T12:50:53;3.87;;;0.90;;
23058;SDS011;30585;51.502;7.218;2023-11-22T12:53:21;1.67;;;0.97;;
23058;SDS011;30585;51.502;7.218;2023-11-22T12:55:49;1.17;;;0.70;;
23058;SDS011;30585;51.502;7.218;2023-11-22T12:58:18;3.27;;;0.97;;
23058;SDS011;30585;51.502;7.218;2023-11-22T13:00:48;1.20;;;1.10;;
23058;SDS011;30585;51.502;7.218;2023-11-22T13:03:17;3.67;;;0.90;;
23058;SDS011;30585;51.502;7.218;2023-11-22T13:05:45;0.60;;;0.60;;
23058;SDS011;30585;51.502;7.218;2023-11-22T13:08:14;2.50;;;0.83;;
23058;SDS011;30585;51.502;7.218;2023-11-22T13:10:43;2.27;;;1.00;;
23058;SDS011;30585;51.502;7.218;2023-11-22T13:13:11;6.83;;;0.63;;
23058;SDS011;30585;51.502;7.218;2023-11-22T13:15:40;1.93;;;0.93;;
23058;SDS011;30585;51.502;7.218;2023-11-22T13:18:09;1.00;;;0.83;;
23058;SDS011;30585;51.502;7.218;2023-11-22T13:20:38;1.73;;;1.00;;
23058;SDS011;30585;51.502;7.218;2023-11-22T13:23:07;1.17;;;0.77;;
23058;SDS011;30585;51.502;7.218;2023-11-22T13:25:35;1.13;;;0.80;;
23058;SDS011;30585;51.502;7.218;2023-11-22T13:28:03;2.30;;;1.00;;
23058;SDS011;30585;51.502;7.218;2023-11-22T13:30:32;1.70;;;1.17;;
23058;SDS011;30585;51.502;7.218;2023-11-22T13:33:00;2.77;;;1.20;;
23058;SDS011;30585;51.502;7.218;2023-11-22T13:35:30;3.47;;;1.13;;
23058;SDS011;30585;51.502;7.218;2023-11-22T13:38:00;1.17;;;0.97;;
23058;SDS011;30585;51.502;7.218;2023-11-22T13:40:28;1.70;;;0.70;;
23058;SDS011;30585;51.502;7.218;2023-11-22T13:42:57;2.30;;;0.83;;
23058;SDS011;30585;51.502;7.218;2023-11-22T13:45:25;2.40;;;1.23;;
23058;SDS011;30585;51.502;7.218;2023-11-22T13:47:54;2.00;;;1.50;;
23058;SDS011;30585;51.502;7.218;2023-11-22T13:50:31;3.17;;;1.00;;
23058;SDS011;30585;51.502;7.218;2023-11-22T13:53:00;2.03;;;1.50;;
23058;SDS011;30585;51.502;7.218;2023-11-22T13:55:30;2.00;;;1.30;;
23058;SDS011;30585;51.502;7.218;2023-11-22T13:57:59;1.73;;;1.07;;
23058;SDS011;30585;51.502;7.218;2023-11-22T14:00:27;1.47;;;0.90;;
23058;SDS011;30585;51.502;7.218;2023-11-22T14:03:00;1.90;;;1.07;;
23058;SDS011;30585;51.502;7.218;2023-11-22T14:05:35;1.83;;;1.17;;
23058;SDS011;30585;51.502;7.218;2023-11-22T14:08:05;2.73;;;1.63;;
23058;SDS011;30585;51.502;7.218;2023-11-22T14:10:33;1.77;;;1.23;;
23058;SDS011;30585;51.502;7.218;2023-11-22T14:13:01;3.83;;;1.43;;
23058;SDS011;30585;51.502;7.218;2023-11-22T14:15:30;0.87;;;0.73;;
23058;SDS011;30585;51.502;7.218;2023-11-22T14:17:58;1.73;;;1.00;;
23058;SDS011;30585;51.502;7.218;2023-11-22T14:20:26;1.47;;;0.90;;
23058;SDS011;30585;51.502;7.218;2023-11-22T14:22:57;2.23;;;1.07;;
23058;SDS011;30585;51.502;7.218;2023-11-22T14:25:25;2.10;;;0.93;;
23058;SDS011;30585;51.502;7.218;2023-11-22T14:27:53;1.77;;;1.10;;
23058;SDS011;30585;51.502;7.218;2023-11-22T14:30:22;2.03;;;1.00;;
23058;SDS011;30585;51.502;7.218;2023-11-22T14:32:52;1.90;;;1.37;;
23058;SDS011;30585;51.502;7.218;2023-11-22T14:35:20;1.60;;;0.97;;
23058;SDS011;30585;51.502;7.218;2023-11-22T14:37:49;1.83;;;1.13;;
23058;SDS011;30585;51.502;7.218;2023-11-22T14:40:20;2.00;;;0.87;;
23058;SDS011;30585;51.502;7.218;2023-11-22T14:42:49;1.67;;;1.00;;
23058;SDS011;30585;51.502;7.218;2023-11-22T14:45:19;1.50;;;1.20;;
23058;SDS011;30585;51.502;7.218;2023-11-22T14:47:47;1.37;;;0.90;;
23058;SDS011;30585;51.502;7.218;2023-11-22T14:50:18;1.10;;;0.93;;
23058;SDS011;30585;51.502;7.218;2023-11-22T14:52:47;0.60;;;0.50;;
23058;SDS011;30585;51.502;7.218;2023-11-22T14:55:16;2.13;;;1.00;;
23058;SDS011;30585;51.502;7.218;2023-11-22T14:57:46;1.27;;;0.83;;